sensor_id;sensor_type;location;lat;lon;timestamp;P1;durP1;ratioP1;P2;durP2;ratioP2
14554;SDS011;7364;50.870;4.722;2023-03-17T00:01:41;4.77;;;1.70;;
14554;SDS011;7364;50.870;4.722;2023-03-17T00:04:09;2.93;;;1.67;;
14554;SDS011;7364;50.870;4.722;2023-03-17T00:06:39;2.97;;;1.50;;
14554;SDS011;7364;50.870;4.722;2023-03-17T00:09:08;2.97;;;1.70;;
14554;SDS011;7364;50.870;4.722;2023-03-17T00:11:38;2.47;;;1.60;;
14554;SDS011;7364;50.870;4.722;2023-03-17T00:14:06;2.07;;;1.13;;
14554;SDS011;7364;50.870;4.722;2023-03-17T00:16:35;3.63;;;1.70;;
14554;SDS011;7364;50.870;4.722;2023-03-17T00:19:04;3.53;;;1.70;;
14554;SDS011;7364;50.870;4.722;2023-03-17T00:21:32;2.80;;;1.30;;
14554;SDS011;7364;50.870;4.722;2023-03-17T00:24:02;2.07;;;1.20;;
14554;SDS011;7364;50.870;4.722;2023-03-17T00:26:32;4.27;;;1.63;;
14554;SDS011;7364;50.870;4.722;2023-03-17T00:29:00;2.20;;;1.40;;
14554;SDS011;7364;50.870;4.722;2023-03-17T00:31:27;3.03;;;1.70;;
14554;SDS011;7364;50.870;4.722;2023-03-17T00:33:56;3.97;;;1.40;;
14554;SDS011;7364;50.870;4.722;2023-03-17T00:36:26;2.90;;;1.50;;
14554;SDS011;7364;50.870;4.722;2023-03-17T00:38:55;3.07;;;1.30;;
14554;SDS011;7364;50.870;4.722;2023-03-17T00:41:24;1.97;;;1.30;;
14554;SDS011;7364;50.870;4.722;2023-03-17T00:43:53;3.80;;;1.40;;
14554;SDS011;7364;50.870;4.722;2023-03-17T00:46:23;2.50;;;1.60;;
14554;SDS011;7364;50.870;4.722;2023-03-17T00:48:53;2.43;;;1.33;;
14554;SDS011;7364;50.870;4.722;2023-03-17T00:51:21;4.60;;;1.80;;
14554;SDS011;7364;50.870;4.722;2023-03-17T00:53:49;3.00;;;1.60;;
14554;SDS011;7364;50.870;4.722;2023-03-17T00:56:18;1.97;;;1.27;;
14554;SDS011;7364;50.870;4.722;2023-03-17T00:58:49;2.33;;;1.40;;
14554;SDS011;7364;50.870;4.722;2023-03-17T01:01:17;3.33;;;1.80;;
14554;SDS011;7364;50.870;4.722;2023-03-17T01:03:44;3.37;;;1.83;;
14554;SDS011;7364;50.870;4.722;2023-03-17T01:06:12;2.40;;;1.50;;
14554;SDS011;7364;50.870;4.722;2023-03-17T01:08:40;2.00;;;1.60;;
14554;SDS011;7364;50.870;4.722;2023-03-17T01:11:14;3.87;;;1.73;;
14554;SDS011;7364;50.870;4.722;2023-03-17T01:13:43;2.70;;;1.80;;
14554;SDS011;7364;50.870;4.722;2023-03-17T01:16:12;3.53;;;1.57;;
14554;SDS011;7364;50.870;4.722;2023-03-17T01:18:41;2.47;;;1.33;;
14554;SDS011;7364;50.870;4.722;2023-03-17T01:21:09;2.60;;;1.50;;
14554;SDS011;7364;50.870;4.722;2023-03-17T01:23:37;2.23;;;1.50;;
14554;SDS011;7364;50.870;4.722;2023-03-17T01:26:04;2.70;;;1.57;;
14554;SDS011;7364;50.870;4.722;2023-03-17T01:28:32;2.13;;;1.30;;
14554;SDS011;7364;50.870;4.722;2023-03-17T01:31:00;2.83;;;1.37;;
14554;SDS011;7364;50.870;4.722;2023-03-17T01:33:29;3.27;;;1.73;;
14554;SDS011;7364;50.870;4.722;2023-03-17T01:35:57;4.73;;;1.83;;
14554;SDS011;7364;50.870;4.722;2023-03-17T01:38:25;2.87;;;1.73;;
14554;SDS011;7364;50.870;4.722;2023-03-17T01:40:52;3.30;;;1.87;;
14554;SDS011;7364;50.870;4.722;2023-03-17T01:43:22;2.90;;;1.47;;
14554;SDS011;7364;50.870;4.722;2023-03-17T01:46:16;2.30;;;1.70;;
14554;SDS011;7364;50.870;4.722;2023-03-17T01:48:49;2.70;;;1.50;;
14554;SDS011;7364;50.870;4.722;2023-03-17T01:51:23;2.57;;;1.43;;
14554;SDS011;7364;50.870;4.722;2023-03-17T01:53:56;3.30;;;1.60;;
14554;SDS011;7364;50.870;4.722;2023-03-17T01:56:25;2.73;;;1.90;;
14554;SDS011;7364;50.870;4.722;2023-03-17T01:58:54;4.30;;;1.50;;
14554;SDS011;7364;50.870;4.722;2023-03-17T02:01:26;2.63;;;1.70;;
14554;SDS011;7364;50.870;4.722;2023-03-17T02:04:00;3.47;;;1.90;;
14554;SDS011;7364;50.870;4.722;2023-03-17T02:06:29;2.90;;;1.50;;
14554;SDS011;7364;50.870;4.722;2023-03-17T02:08:57;3.27;;;1.67;;
14554;SDS011;7364;50.870;4.722;2023-03-17T02:11:26;1.80;;;1.20;;
14554;SDS011;7364;50.870;4.722;2023-03-17T02:13:54;2.83;;;1.63;;
14554;SDS011;7364;50.870;4.722;2023-03-17T02:16:21;2.60;;;1.47;;
14554;SDS011;7364;50.870;4.722;2023-03-17T02:18:49;2.53;;;1.57;;
14554;SDS011;7364;50.870;4.722;2023-03-17T02:21:29;3.10;;;1.87;;
14554;SDS011;7364;50.870;4.722;2023-03-17T02:24:04;2.33;;;1.47;;
14554;SDS011;7364;50.870;4.722;2023-03-17T02:26:36;2.37;;;1.50;;
14554;SDS011;7364;50.870;4.722;2023-03-17T02:29:04;1.47;;;1.27;;
14554;SDS011;7364;50.870;4.722;2023-03-17T02:31:32;4.77;;;1.93;;
14554;SDS011;7364;50.870;4.722;2023-03-17T02:34:00;3.07;;;1.60;;
14554;SDS011;7364;50.870;4.722;2023-03-17T02:36:29;3.17;;;1.40;;
14554;SDS011;7364;50.870;4.722;2023-03-17T02:38:56;2.27;;;1.30;;
14554;SDS011;7364;50.870;4.722;2023-03-17T02:41:25;3.13;;;1.70;;
14554;SDS011;7364;50.870;4.722;2023-03-17T02:43:52;3.40;;;1.70;;
14554;SDS011;7364;50.870;4.722;2023-03-17T02:46:20;2.70;;;1.63;;
14554;SDS011;7364;50.870;4.722;2023-03-17T02:48:49;4.70;;;1.97;;
14554;SDS011;7364;50.870;4.722;2023-03-17T02:51:19;2.50;;;1.50;;
14554;SDS011;7364;50.870;4.722;2023-03-17T02:53:48;2.20;;;1.23;;
14554;SDS011;7364;50.870;4.722;2023-03-17T02:56:16;3.03;;;1.80;;
14554;SDS011;7364;50.870;4.722;2023-03-17T02:58:44;2.97;;;1.77;;
14554;SDS011;7364;50.870;4.722;2023-03-17T03:01:11;2.70;;;1.57;;
14554;SDS011;7364;50.870;4.722;2023-03-17T03:03:40;3.67;;;1.50;;
14554;SDS011;7364;50.870;4.722;2023-03-17T03:06:07;2.73;;;1.67;;
14554;SDS011;7364;50.870;4.722;2023-03-17T03:08:35;3.20;;;1.80;;
14554;SDS011;7364;50.870;4.722;2023-03-17T03:11:04;4.57;;;2.07;;
14554;SDS011;7364;50.870;4.722;2023-03-17T03:13:32;4.57;;;1.70;;
14554;SDS011;7364;50.870;4.722;2023-03-17T03:16:00;3.73;;;1.90;;
14554;SDS011;7364;50.870;4.722;2023-03-17T03:18:28;4.23;;;1.70;;
14554;SDS011;7364;50.870;4.722;2023-03-17T03:20:57;4.37;;;1.80;;
14554;SDS011;7364;50.870;4.722;2023-03-17T03:23:25;2.77;;;1.77;;
14554;SDS011;7364;50.870;4.722;2023-03-17T03:25:52;2.40;;;1.73;;
14554;SDS011;7364;50.870;4.722;2023-03-17T03:28:21;2.20;;;1.27;;
14554;SDS011;7364;50.870;4.722;2023-03-17T03:30:49;2.27;;;1.40;;
14554;SDS011;7364;50.870;4.722;2023-03-17T03:33:17;1.60;;;1.20;;
14554;SDS011;7364;50.870;4.722;2023-03-17T03:35:44;1.37;;;1.20;;
14554;SDS011;7364;50.870;4.722;2023-03-17T03:38:12;3.27;;;1.53;;
14554;SDS011;7364;50.870;4.722;2023-03-17T03:40:39;2.33;;;1.37;;
14554;SDS011;7364;50.870;4.722;2023-03-17T03:43:07;2.73;;;1.20;;
14554;SDS011;7364;50.870;4.722;2023-03-17T03:45:36;3.03;;;1.43;;
14554;SDS011;7364;50.870;4.722;2023-03-17T03:48:04;1.53;;;1.20;;
14554;SDS011;7364;50.870;4.722;2023-03-17T03:50:32;1.87;;;1.37;;
14554;SDS011;7364;50.870;4.722;2023-03-17T03:52:59;3.80;;;1.83;;
14554;SDS011;7364;50.870;4.722;2023-03-17T03:55:26;3.03;;;1.57;;
14554;SDS011;7364;50.870;4.722;2023-03-17T03:57:54;3.60;;;1.50;;
14554;SDS011;7364;50.870;4.722;2023-03-17T04:00:22;2.10;;;1.40;;
14554;SDS011;7364;50.870;4.722;2023-03-17T04:02:51;2.13;;;1.40;;
14554;SDS011;7364;50.870;4.722;2023-03-17T04:05:18;2.97;;;1.73;;
14554;SDS011;7364;50.870;4.722;2023-03-17T04:07:46;2.93;;;1.50;;
14554;SDS011;7364;50.870;4.722;2023-03-17T04:10:14;2.93;;;1.50;;
14554;SDS011;7364;50.870;4.722;2023-03-17T04:12:42;2.03;;;1.30;;
14554;SDS011;7364;50.870;4.722;2023-03-17T04:15:12;3.20;;;1.30;;
14554;SDS011;7364;50.870;4.722;2023-03-17T04:17:42;3.77;;;1.67;;
14554;SDS011;7364;50.870;4.722;2023-03-17T04:20:13;3.07;;;1.60;;
14554;SDS011;7364;50.870;4.722;2023-03-17T04:22:41;2.50;;;1.53;;
14554;SDS011;7364;50.870;4.722;2023-03-17T04:25:09;2.23;;;1.60;;
14554;SDS011;7364;50.870;4.722;2023-03-17T04:27:38;2.20;;;1.20;;
14554;SDS011;7364;50.870;4.722;2023-03-17T04:30:06;2.20;;;1.33;;
14554;SDS011;7364;50.870;4.722;2023-03-17T04:32:36;3.63;;;1.30;;
14554;SDS011;7364;50.870;4.722;2023-03-17T04:35:04;5.13;;;1.77;;
14554;SDS011;7364;50.870;4.722;2023-03-17T04:37:34;3.57;;;1.57;;
14554;SDS011;7364;50.870;4.722;2023-03-17T04:40:03;2.10;;;1.40;;
14554;SDS011;7364;50.870;4.722;2023-03-17T04:42:32;5.30;;;1.47;;
14554;SDS011;7364;50.870;4.722;2023-03-17T04:45:00;4.90;;;1.50;;
14554;SDS011;7364;50.870;4.722;2023-03-17T04:47:27;5.80;;;1.50;;
14554;SDS011;7364;50.870;4.722;2023-03-17T04:49:54;2.10;;;1.50;;
14554;SDS011;7364;50.870;4.722;2023-03-17T04:52:22;3.57;;;1.80;;
14554;SDS011;7364;50.870;4.722;2023-03-17T04:54:50;2.73;;;1.40;;
14554;SDS011;7364;50.870;4.722;2023-03-17T04:57:18;4.53;;;1.90;;
14554;SDS011;7364;50.870;4.722;2023-03-17T04:59:46;3.53;;;1.50;;
14554;SDS011;7364;50.870;4.722;2023-03-17T05:02:13;10.93;;;1.90;;
14554;SDS011;7364;50.870;4.722;2023-03-17T05:04:42;6.63;;;1.70;;
14554;SDS011;7364;50.870;4.722;2023-03-17T05:07:13;2.43;;;1.67;;
14554;SDS011;7364;50.870;4.722;2023-03-17T05:09:40;2.90;;;1.47;;
14554;SDS011;7364;50.870;4.722;2023-03-17T05:12:09;3.27;;;1.57;;
14554;SDS011;7364;50.870;4.722;2023-03-17T05:14:39;1.60;;;1.40;;
14554;SDS011;7364;50.870;4.722;2023-03-17T05:17:06;6.03;;;1.77;;
14554;SDS011;7364;50.870;4.722;2023-03-17T05:19:34;4.73;;;2.00;;
14554;SDS011;7364;50.870;4.722;2023-03-17T05:22:01;3.10;;;1.77;;
14554;SDS011;7364;50.870;4.722;2023-03-17T05:24:29;2.10;;;1.43;;
14554;SDS011;7364;50.870;4.722;2023-03-17T05:26:58;2.07;;;1.27;;
14554;SDS011;7364;50.870;4.722;2023-03-17T05:29:27;2.13;;;1.40;;
14554;SDS011;7364;50.870;4.722;2023-03-17T05:31:54;3.10;;;1.60;;
14554;SDS011;7364;50.870;4.722;2023-03-17T05:34:21;2.43;;;1.80;;
14554;SDS011;7364;50.870;4.722;2023-03-17T05:36:48;2.13;;;1.47;;
14554;SDS011;7364;50.870;4.722;2023-03-17T05:39:16;2.63;;;1.53;;
14554;SDS011;7364;50.870;4.722;2023-03-17T05:41:43;3.20;;;1.87;;
14554;SDS011;7364;50.870;4.722;2023-03-17T05:44:11;3.20;;;1.63;;
14554;SDS011;7364;50.870;4.722;2023-03-17T05:46:40;4.10;;;1.93;;
14554;SDS011;7364;50.870;4.722;2023-03-17T05:49:07;3.40;;;2.03;;
14554;SDS011;7364;50.870;4.722;2023-03-17T05:51:34;1.93;;;1.27;;
14554;SDS011;7364;50.870;4.722;2023-03-17T05:54:03;2.57;;;1.43;;
14554;SDS011;7364;50.870;4.722;2023-03-17T05:56:31;8.43;;;1.67;;
14554;SDS011;7364;50.870;4.722;2023-03-17T05:58:59;3.57;;;1.57;;
14554;SDS011;7364;50.870;4.722;2023-03-17T06:01:26;3.50;;;1.80;;
14554;SDS011;7364;50.870;4.722;2023-03-17T06:03:55;9.20;;;2.07;;
14554;SDS011;7364;50.870;4.722;2023-03-17T06:06:25;2.53;;;1.43;;
14554;SDS011;7364;50.870;4.722;2023-03-17T06:08:52;2.83;;;1.30;;
14554;SDS011;7364;50.870;4.722;2023-03-17T06:11:20;4.43;;;1.80;;
14554;SDS011;7364;50.870;4.722;2023-03-17T06:13:47;2.27;;;1.40;;
14554;SDS011;7364;50.870;4.722;2023-03-17T06:16:15;3.57;;;1.90;;
14554;SDS011;7364;50.870;4.722;2023-03-17T06:18:42;5.57;;;1.77;;
14554;SDS011;7364;50.870;4.722;2023-03-17T06:21:11;3.57;;;2.00;;
14554;SDS011;7364;50.870;4.722;2023-03-17T06:23:39;4.60;;;1.73;;
14554;SDS011;7364;50.870;4.722;2023-03-17T06:26:06;3.43;;;1.70;;
14554;SDS011;7364;50.870;4.722;2023-03-17T06:28:33;3.13;;;1.83;;
14554;SDS011;7364;50.870;4.722;2023-03-17T06:31:04;3.03;;;2.13;;
14554;SDS011;7364;50.870;4.722;2023-03-17T06:33:33;3.83;;;2.03;;
14554;SDS011;7364;50.870;4.722;2023-03-17T06:36:00;3.37;;;1.87;;
14554;SDS011;7364;50.870;4.722;2023-03-17T06:38:29;3.30;;;1.73;;
14554;SDS011;7364;50.870;4.722;2023-03-17T06:40:56;4.23;;;1.73;;
14554;SDS011;7364;50.870;4.722;2023-03-17T06:43:24;4.13;;;2.40;;
14554;SDS011;7364;50.870;4.722;2023-03-17T06:45:51;12.47;;;2.10;;
14554;SDS011;7364;50.870;4.722;2023-03-17T06:48:19;3.87;;;1.67;;
14554;SDS011;7364;50.870;4.722;2023-03-17T06:50:47;3.53;;;2.20;;
14554;SDS011;7364;50.870;4.722;2023-03-17T06:53:15;4.10;;;1.93;;
14554;SDS011;7364;50.870;4.722;2023-03-17T06:55:44;2.97;;;1.70;;
14554;SDS011;7364;50.870;4.722;2023-03-17T06:58:12;3.23;;;1.70;;
14554;SDS011;7364;50.870;4.722;2023-03-17T07:00:40;6.80;;;2.00;;
14554;SDS011;7364;50.870;4.722;2023-03-17T07:03:09;12.17;;;3.87;;
14554;SDS011;7364;50.870;4.722;2023-03-17T07:05:37;5.07;;;1.97;;
14554;SDS011;7364;50.870;4.722;2023-03-17T07:08:05;4.40;;;2.13;;
14554;SDS011;7364;50.870;4.722;2023-03-17T07:10:33;5.27;;;2.43;;
14554;SDS011;7364;50.870;4.722;2023-03-17T07:13:03;4.43;;;2.20;;
14554;SDS011;7364;50.870;4.722;2023-03-17T07:15:33;4.07;;;2.10;;
14554;SDS011;7364;50.870;4.722;2023-03-17T07:18:01;3.93;;;1.97;;
14554;SDS011;7364;50.870;4.722;2023-03-17T07:20:30;4.77;;;2.17;;
14554;SDS011;7364;50.870;4.722;2023-03-17T07:22:58;4.77;;;2.37;;
14554;SDS011;7364;50.870;4.722;2023-03-17T07:25:26;4.50;;;2.30;;
14554;SDS011;7364;50.870;4.722;2023-03-17T07:27:53;4.40;;;2.20;;
14554;SDS011;7364;50.870;4.722;2023-03-17T07:30:22;3.50;;;2.30;;
14554;SDS011;7364;50.870;4.722;2023-03-17T07:32:51;4.73;;;2.10;;
14554;SDS011;7364;50.870;4.722;2023-03-17T07:35:19;2.80;;;1.90;;
14554;SDS011;7364;50.870;4.722;2023-03-17T07:37:46;5.03;;;2.10;;
14554;SDS011;7364;50.870;4.722;2023-03-17T07:40:14;4.57;;;1.90;;
14554;SDS011;7364;50.870;4.722;2023-03-17T07:42:42;7.27;;;2.23;;
14554;SDS011;7364;50.870;4.722;2023-03-17T07:45:10;4.17;;;2.07;;
14554;SDS011;7364;50.870;4.722;2023-03-17T07:47:40;5.97;;;2.20;;
14554;SDS011;7364;50.870;4.722;2023-03-17T07:50:07;3.37;;;1.90;;
14554;SDS011;7364;50.870;4.722;2023-03-17T07:52:35;4.17;;;2.53;;
14554;SDS011;7364;50.870;4.722;2023-03-17T07:55:03;5.97;;;2.13;;
14554;SDS011;7364;50.870;4.722;2023-03-17T07:57:32;3.80;;;2.40;;
14554;SDS011;7364;50.870;4.722;2023-03-17T08:00:00;8.20;;;2.13;;
14554;SDS011;7364;50.870;4.722;2023-03-17T08:02:28;4.97;;;2.20;;
14554;SDS011;7364;50.870;4.722;2023-03-17T08:04:57;3.93;;;2.10;;
14554;SDS011;7364;50.870;4.722;2023-03-17T08:07:24;9.17;;;8.37;;
14554;SDS011;7364;50.870;4.722;2023-03-17T08:09:52;3.40;;;2.37;;
14554;SDS011;7364;50.870;4.722;2023-03-17T08:12:19;4.03;;;2.10;;
14554;SDS011;7364;50.870;4.722;2023-03-17T08:14:46;3.10;;;2.07;;
14554;SDS011;7364;50.870;4.722;2023-03-17T08:17:14;3.23;;;1.93;;
14554;SDS011;7364;50.870;4.722;2023-03-17T08:19:41;5.13;;;2.40;;
14554;SDS011;7364;50.870;4.722;2023-03-17T08:22:10;3.27;;;2.10;;
14554;SDS011;7364;50.870;4.722;2023-03-17T08:24:37;5.87;;;2.80;;
14554;SDS011;7364;50.870;4.722;2023-03-17T08:27:07;4.40;;;2.30;;
14554;SDS011;7364;50.870;4.722;2023-03-17T08:29:34;5.00;;;2.40;;
14554;SDS011;7364;50.870;4.722;2023-03-17T08:32:02;5.07;;;2.20;;
14554;SDS011;7364;50.870;4.722;2023-03-17T08:34:32;2.67;;;1.93;;
14554;SDS011;7364;50.870;4.722;2023-03-17T08:37:00;5.57;;;2.30;;
14554;SDS011;7364;50.870;4.722;2023-03-17T08:39:30;5.70;;;2.97;;
14554;SDS011;7364;50.870;4.722;2023-03-17T08:41:57;2.57;;;1.93;;
14554;SDS011;7364;50.870;4.722;2023-03-17T08:44:24;5.67;;;2.60;;
14554;SDS011;7364;50.870;4.722;2023-03-17T08:46:52;4.90;;;2.23;;
14554;SDS011;7364;50.870;4.722;2023-03-17T08:49:20;4.87;;;2.77;;
14554;SDS011;7364;50.870;4.722;2023-03-17T08:51:50;8.53;;;3.40;;
14554;SDS011;7364;50.870;4.722;2023-03-17T08:54:18;5.23;;;2.43;;
14554;SDS011;7364;50.870;4.722;2023-03-17T08:56:47;5.17;;;3.50;;
14554;SDS011;7364;50.870;4.722;2023-03-17T08:59:15;8.37;;;3.37;;
14554;SDS011;7364;50.870;4.722;2023-03-17T09:01:43;4.43;;;2.70;;
14554;SDS011;7364;50.870;4.722;2023-03-17T09:04:11;5.13;;;3.30;;
14554;SDS011;7364;50.870;4.722;2023-03-17T09:06:39;3.80;;;2.20;;
14554;SDS011;7364;50.870;4.722;2023-03-17T09:09:07;4.27;;;2.73;;
14554;SDS011;7364;50.870;4.722;2023-03-17T09:11:35;5.40;;;2.83;;
14554;SDS011;7364;50.870;4.722;2023-03-17T09:14:06;6.47;;;3.07;;
14554;SDS011;7364;50.870;4.722;2023-03-17T09:16:35;5.63;;;3.27;;
14554;SDS011;7364;50.870;4.722;2023-03-17T09:19:03;4.17;;;2.47;;
14554;SDS011;7364;50.870;4.722;2023-03-17T09:21:30;3.30;;;1.90;;
14554;SDS011;7364;50.870;4.722;2023-03-17T09:23:58;4.30;;;2.30;;
14554;SDS011;7364;50.870;4.722;2023-03-17T09:26:26;3.10;;;2.17;;
14554;SDS011;7364;50.870;4.722;2023-03-17T09:28:54;5.00;;;2.87;;
14554;SDS011;7364;50.870;4.722;2023-03-17T09:31:23;8.53;;;3.30;;
14554;SDS011;7364;50.870;4.722;2023-03-17T09:33:51;4.57;;;2.30;;
14554;SDS011;7364;50.870;4.722;2023-03-17T09:36:18;4.30;;;2.87;;
14554;SDS011;7364;50.870;4.722;2023-03-17T09:38:46;3.43;;;2.60;;
14554;SDS011;7364;50.870;4.722;2023-03-17T09:41:21;8.07;;;2.73;;
14554;SDS011;7364;50.870;4.722;2023-03-17T09:44:08;7.13;;;2.90;;
14554;SDS011;7364;50.870;4.722;2023-03-17T09:46:50;2.93;;;1.97;;
14554;SDS011;7364;50.870;4.722;2023-03-17T09:49:27;4.23;;;2.20;;
14554;SDS011;7364;50.870;4.722;2023-03-17T09:52:03;4.40;;;2.33;;
14554;SDS011;7364;50.870;4.722;2023-03-17T09:54:32;4.00;;;2.20;;
14554;SDS011;7364;50.870;4.722;2023-03-17T09:57:03;5.63;;;2.30;;
14554;SDS011;7364;50.870;4.722;2023-03-17T09:59:38;6.83;;;2.60;;
14554;SDS011;7364;50.870;4.722;2023-03-17T10:02:16;4.83;;;2.30;;
14554;SDS011;7364;50.870;4.722;2023-03-17T10:04:48;2.80;;;2.37;;
14554;SDS011;7364;50.870;4.722;2023-03-17T10:07:19;3.23;;;2.10;;
14554;SDS011;7364;50.870;4.722;2023-03-17T10:09:55;4.10;;;1.93;;
14554;SDS011;7364;50.870;4.722;2023-03-17T10:12:31;3.97;;;2.40;;
14554;SDS011;7364;50.870;4.722;2023-03-17T10:15:11;2.93;;;1.87;;
14554;SDS011;7364;50.870;4.722;2023-03-17T10:17:45;4.27;;;2.23;;
14554;SDS011;7364;50.870;4.722;2023-03-17T10:20:13;3.40;;;1.97;;
14554;SDS011;7364;50.870;4.722;2023-03-17T10:22:44;3.23;;;2.00;;
14554;SDS011;7364;50.870;4.722;2023-03-17T10:25:16;5.43;;;2.13;;
14554;SDS011;7364;50.870;4.722;2023-03-17T10:27:46;2.70;;;1.90;;
14554;SDS011;7364;50.870;4.722;2023-03-17T10:30:19;3.13;;;1.87;;
14554;SDS011;7364;50.870;4.722;2023-03-17T10:32:50;5.47;;;2.20;;
14554;SDS011;7364;50.870;4.722;2023-03-17T10:35:21;5.67;;;2.70;;
14554;SDS011;7364;50.870;4.722;2023-03-17T10:37:50;5.50;;;2.33;;
14554;SDS011;7364;50.870;4.722;2023-03-17T10:40:18;3.33;;;1.93;;
14554;SDS011;7364;50.870;4.722;2023-03-17T10:42:47;3.50;;;1.80;;
14554;SDS011;7364;50.870;4.722;2023-03-17T10:45:20;4.03;;;2.60;;
14554;SDS011;7364;50.870;4.722;2023-03-17T10:47:56;6.10;;;2.20;;
14554;SDS011;7364;50.870;4.722;2023-03-17T10:50:25;4.27;;;1.80;;
14554;SDS011;7364;50.870;4.722;2023-03-17T10:52:56;3.63;;;2.27;;
14554;SDS011;7364;50.870;4.722;2023-03-17T10:55:27;2.97;;;2.17;;
14554;SDS011;7364;50.870;4.722;2023-03-17T10:58:01;4.40;;;2.03;;
14554;SDS011;7364;50.870;4.722;2023-03-17T11:00:33;5.50;;;2.30;;
14554;SDS011;7364;50.870;4.722;2023-03-17T11:03:09;4.37;;;2.00;;
14554;SDS011;7364;50.870;4.722;2023-03-17T11:05:42;4.53;;;2.00;;
14554;SDS011;7364;50.870;4.722;2023-03-17T11:08:21;4.83;;;2.30;;
14554;SDS011;7364;50.870;4.722;2023-03-17T11:10:53;3.33;;;2.03;;
14554;SDS011;7364;50.870;4.722;2023-03-17T11:13:26;4.67;;;2.27;;
14554;SDS011;7364;50.870;4.722;2023-03-17T11:15:57;7.00;;;2.33;;
14554;SDS011;7364;50.870;4.722;2023-03-17T11:18:44;3.27;;;2.20;;
14554;SDS011;7364;50.870;4.722;2023-03-17T11:21:14;4.53;;;2.37;;
14554;SDS011;7364;50.870;4.722;2023-03-17T11:23:51;4.50;;;2.57;;
14554;SDS011;7364;50.870;4.722;2023-03-17T11:29:23;4.13;;;2.37;;
14554;SDS011;7364;50.870;4.722;2023-03-17T11:32:00;4.53;;;2.33;;
14554;SDS011;7364;50.870;4.722;2023-03-17T11:34:45;4.30;;;2.50;;
14554;SDS011;7364;50.870;4.722;2023-03-17T11:37:26;5.23;;;2.30;;
14554;SDS011;7364;50.870;4.722;2023-03-17T11:40:11;4.17;;;2.40;;
14554;SDS011;7364;50.870;4.722;2023-03-17T11:42:49;4.67;;;2.60;;
14554;SDS011;7364;50.870;4.722;2023-03-17T11:45:24;4.77;;;2.70;;
14554;SDS011;7364;50.870;4.722;2023-03-17T11:47:59;3.87;;;2.70;;
14554;SDS011;7364;50.870;4.722;2023-03-17T11:50:43;4.47;;;2.57;;
14554;SDS011;7364;50.870;4.722;2023-03-17T11:56:07;3.57;;;2.70;;
14554;SDS011;7364;50.870;4.722;2023-03-17T11:58:41;4.77;;;2.90;;
14554;SDS011;7364;50.870;4.722;2023-03-17T12:01:11;7.77;;;2.50;;
14554;SDS011;7364;50.870;4.722;2023-03-17T12:03:43;5.67;;;3.60;;
14554;SDS011;7364;50.870;4.722;2023-03-17T12:06:16;4.50;;;2.60;;
14554;SDS011;7364;50.870;4.722;2023-03-17T12:08:52;5.47;;;3.50;;
14554;SDS011;7364;50.870;4.722;2023-03-17T12:11:25;7.30;;;3.27;;
14554;SDS011;7364;50.870;4.722;2023-03-17T12:13:55;3.97;;;2.50;;
14554;SDS011;7364;50.870;4.722;2023-03-17T12:16:28;6.13;;;3.03;;
14554;SDS011;7364;50.870;4.722;2023-03-17T12:19:03;6.97;;;3.63;;
14554;SDS011;7364;50.870;4.722;2023-03-17T12:21:41;4.37;;;2.63;;
14554;SDS011;7364;50.870;4.722;2023-03-17T12:24:15;3.73;;;2.77;;
14554;SDS011;7364;50.870;4.722;2023-03-17T12:26:49;4.13;;;2.67;;
14554;SDS011;7364;50.870;4.722;2023-03-17T12:29:24;5.87;;;2.77;;
14554;SDS011;7364;50.870;4.722;2023-03-17T12:32:09;5.13;;;2.67;;
14554;SDS011;7364;50.870;4.722;2023-03-17T12:34:45;6.80;;;2.70;;
14554;SDS011;7364;50.870;4.722;2023-03-17T12:37:18;5.43;;;2.83;;
14554;SDS011;7364;50.870;4.722;2023-03-17T12:39:50;6.90;;;2.73;;
14554;SDS011;7364;50.870;4.722;2023-03-17T12:42:34;5.57;;;2.57;;
14554;SDS011;7364;50.870;4.722;2023-03-17T12:45:15;4.83;;;2.80;;
14554;SDS011;7364;50.870;4.722;2023-03-17T12:48:03;7.00;;;2.27;;
14554;SDS011;7364;50.870;4.722;2023-03-17T12:50:49;4.30;;;2.27;;
14554;SDS011;7364;50.870;4.722;2023-03-17T12:53:41;3.13;;;2.27;;
14554;SDS011;7364;50.870;4.722;2023-03-17T12:56:12;3.87;;;2.37;;
14554;SDS011;7364;50.870;4.722;2023-03-17T12:58:45;5.77;;;2.60;;
14554;SDS011;7364;50.870;4.722;2023-03-17T13:01:17;8.73;;;2.77;;
14554;SDS011;7364;50.870;4.722;2023-03-17T13:03:57;6.17;;;2.77;;
14554;SDS011;7364;50.870;4.722;2023-03-17T13:06:30;5.73;;;3.10;;
14554;SDS011;7364;50.870;4.722;2023-03-17T13:12:04;4.73;;;2.90;;
14554;SDS011;7364;50.870;4.722;2023-03-17T13:14:39;5.30;;;2.80;;
14554;SDS011;7364;50.870;4.722;2023-03-17T13:20:08;4.20;;;2.30;;
14554;SDS011;7364;50.870;4.722;2023-03-17T13:25:33;6.57;;;2.27;;
14554;SDS011;7364;50.870;4.722;2023-03-17T13:28:22;3.47;;;2.27;;
14554;SDS011;7364;50.870;4.722;2023-03-17T13:30:56;6.90;;;2.70;;
14554;SDS011;7364;50.870;4.722;2023-03-17T13:33:34;8.60;;;2.53;;
14554;SDS011;7364;50.870;4.722;2023-03-17T13:36:29;6.30;;;2.57;;
14554;SDS011;7364;50.870;4.722;2023-03-17T13:42:26;6.40;;;2.60;;
14554;SDS011;7364;50.870;4.722;2023-03-17T13:45:06;4.87;;;2.20;;
14554;SDS011;7364;50.870;4.722;2023-03-17T13:47:43;5.63;;;2.80;;
14554;SDS011;7364;50.870;4.722;2023-03-17T13:50:12;4.97;;;2.60;;
14554;SDS011;7364;50.870;4.722;2023-03-17T13:52:46;4.93;;;2.30;;
14554;SDS011;7364;50.870;4.722;2023-03-17T13:55:30;4.97;;;2.47;;
14554;SDS011;7364;50.870;4.722;2023-03-17T13:58:21;4.83;;;1.90;;
14554;SDS011;7364;50.870;4.722;2023-03-17T14:00:59;3.13;;;1.97;;
14554;SDS011;7364;50.870;4.722;2023-03-17T14:03:35;3.93;;;2.07;;
14554;SDS011;7364;50.870;4.722;2023-03-17T14:06:07;7.33;;;4.00;;
14554;SDS011;7364;50.870;4.722;2023-03-17T14:08:38;10.47;;;5.37;;
14554;SDS011;7364;50.870;4.722;2023-03-17T14:11:25;6.70;;;3.43;;
14554;SDS011;7364;50.870;4.722;2023-03-17T14:14:12;8.63;;;4.17;;
14554;SDS011;7364;50.870;4.722;2023-03-17T14:16:46;9.30;;;3.87;;
14554;SDS011;7364;50.870;4.722;2023-03-17T14:19:22;10.80;;;3.80;;
14554;SDS011;7364;50.870;4.722;2023-03-17T14:21:52;7.17;;;4.00;;
14554;SDS011;7364;50.870;4.722;2023-03-17T14:24:21;8.60;;;4.53;;
14554;SDS011;7364;50.870;4.722;2023-03-17T14:26:50;6.13;;;3.57;;
14554;SDS011;7364;50.870;4.722;2023-03-17T14:29:20;11.93;;;4.30;;
14554;SDS011;7364;50.870;4.722;2023-03-17T14:31:59;7.13;;;2.93;;
14554;SDS011;7364;50.870;4.722;2023-03-17T14:34:28;3.73;;;2.00;;
14554;SDS011;7364;50.870;4.722;2023-03-17T14:36:58;7.63;;;2.90;;
14554;SDS011;7364;50.870;4.722;2023-03-17T14:39:27;3.13;;;1.90;;
14554;SDS011;7364;50.870;4.722;2023-03-17T14:41:56;4.97;;;2.30;;
14554;SDS011;7364;50.870;4.722;2023-03-17T14:44:26;3.77;;;2.03;;
14554;SDS011;7364;50.870;4.722;2023-03-17T14:47:01;5.80;;;2.80;;
14554;SDS011;7364;50.870;4.722;2023-03-17T14:49:30;4.27;;;2.60;;
14554;SDS011;7364;50.870;4.722;2023-03-17T14:51:57;4.73;;;2.30;;
14554;SDS011;7364;50.870;4.722;2023-03-17T14:54:27;5.33;;;2.97;;
14554;SDS011;7364;50.870;4.722;2023-03-17T14:56:58;7.43;;;2.40;;
14554;SDS011;7364;50.870;4.722;2023-03-17T14:59:31;3.80;;;1.97;;
14554;SDS011;7364;50.870;4.722;2023-03-17T15:02:01;4.03;;;2.07;;
14554;SDS011;7364;50.870;4.722;2023-03-17T15:04:48;4.70;;;2.47;;
14554;SDS011;7364;50.870;4.722;2023-03-17T15:07:26;3.73;;;2.17;;
14554;SDS011;7364;50.870;4.722;2023-03-17T15:09:57;4.33;;;2.23;;
14554;SDS011;7364;50.870;4.722;2023-03-17T15:12:29;5.40;;;1.90;;
14554;SDS011;7364;50.870;4.722;2023-03-17T15:14:59;4.00;;;2.10;;
14554;SDS011;7364;50.870;4.722;2023-03-17T15:17:30;3.40;;;2.20;;
14554;SDS011;7364;50.870;4.722;2023-03-17T15:20:01;5.80;;;1.73;;
14554;SDS011;7364;50.870;4.722;2023-03-17T15:22:38;4.43;;;2.30;;
14554;SDS011;7364;50.870;4.722;2023-03-17T15:25:19;3.93;;;2.20;;
14554;SDS011;7364;50.870;4.722;2023-03-17T15:27:58;4.03;;;2.07;;
14554;SDS011;7364;50.870;4.722;2023-03-17T15:30:28;3.77;;;2.10;;
14554;SDS011;7364;50.870;4.722;2023-03-17T15:32:57;4.10;;;2.63;;
14554;SDS011;7364;50.870;4.722;2023-03-17T15:35:26;6.27;;;2.13;;
14554;SDS011;7364;50.870;4.722;2023-03-17T15:37:55;4.53;;;1.87;;
14554;SDS011;7364;50.870;4.722;2023-03-17T15:40:25;4.67;;;2.17;;